Time;durP1;ratioP1;P1;durP2;ratioP2;P2;SDS_P1;SDS_P2;PMS_P1;PMS_P2;Temp;Humidity;BMP_temperature;BMP_pressure;BME280_temperature;BME280_humidity;BME280_pressure;Samples;Min_cycle;Max_cycle;Signal;HPM_P1;HPM_P2
2021/07/24 00:03:40;;;;;;;31.02;28.48;;;;;;;18.76;69.13;99864.50;10565715;28;20146;-75
2021/07/24 00:08:42;;;;;;;25.70;24.00;;;;;;;18.46;69.89;99862.09;10566391;28;20058;-73
2021/07/24 00:13:43;;;;;;;26.25;24.00;;;;;;;18.21;70.81;99859.34;10585828;28;20035;-74
2021/07/24 00:18:45;;;;;;;25.35;23.75;;;;;;;18.28;70.73;99852.66;10587499;28;20043;-74
2021/07/24 00:23:46;;;;;;;22.73;21.13;;;;;;;18.23;70.85;99844.97;10567076;28;20035;-75
2021/07/24 00:28:49;;;;;;;21.42;19.73;;;;;;;18.07;71.26;99846.97;10567385;28;20052;-73
2021/07/24 00:33:51;;;;;;;21.00;19.60;;;;;;;17.76;72.94;99841.00;10585097;28;20036;-73
2021/07/24 00:38:53;;;;;;;20.23;18.77;;;;;;;17.76;73.11;99837.47;10585854;28;20040;-73
2021/07/24 00:43:59;;;;;;;21.88;19.92;;;;;;;17.61;73.95;99840.13;10565317;28;20044;-73
2021/07/24 00:49:02;;;;;;;19.75;18.35;;;;;;;17.66;74.29;99831.84;10564423;28;20077;-75
2021/07/24 00:54:14;;;;;;;21.48;20.08;;;;;;;17.67;73.95;99825.59;10571536;28;20043;-73
2021/07/24 00:59:16;;;;;;;21.38;19.52;;;;;;;17.78;73.44;99817.78;10590572;28;20043;-75
2021/07/24 01:04:18;;;;;;;19.75;18.40;;;;;;;17.50;74.50;99808.06;10591673;28;20043;-74
2021/07/24 01:09:21;;;;;;;22.13;20.30;;;;;;;17.74;73.18;99816.28;10589322;28;20043;-73
2021/07/24 01:14:22;;;;;;;21.17;19.70;;;;;;;17.55;74.00;99811.28;10589255;28;20039;-74
2021/07/24 01:19:24;;;;;;;21.35;19.70;;;;;;;17.44;74.55;99807.59;10571140;28;20078;-74
2021/07/24 01:24:26;;;;;;;19.92;18.63;;;;;;;17.39;74.76;99799.91;10572361;28;20043;-75
2021/07/24 01:29:31;;;;;;;20.23;18.77;;;;;;;17.25;75.00;99798.13;10571020;28;20051;-74
2021/07/24 01:34:36;;;;;;;20.00;18.55;;;;;;;17.23;74.97;99800.06;10571029;28;20047;-74
2021/07/24 01:39:40;;;;;;;21.25;19.65;;;;;;;17.28;74.72;99799.75;10570512;28;20135;-74
2021/07/24 01:44:42;;;;;;;20.35;18.85;;;;;;;17.14;75.32;99788.19;10589075;28;20055;-74
2021/07/24 01:55:04;;;;;;;20.23;18.73;;;;;;;17.17;75.52;99784.47;10588214;28;20050;-74
2021/07/24 02:00:12;;;;;;;19.85;18.55;;;;;;;17.16;75.54;99782.78;10589063;28;20395;-74
2021/07/24 02:05:45;;;;;;;20.33;18.75;;;;;;;17.26;74.77;99783.03;10585430;28;20496;-74
2021/07/24 02:10:49;;;;;;;19.83;18.42;;;;;;;17.13;75.29;99782.97;10590770;28;20489;-74
2021/07/24 02:15:51;;;;;;;19.55;18.25;;;;;;;17.00;75.88;99777.59;10586536;28;20043;-74
2021/07/24 02:20:53;;;;;;;20.02;18.52;;;;;;;16.87;76.29;99774.84;10586261;28;20457;-74
2021/07/24 02:25:56;;;;;;;20.13;18.73;;;;;;;16.58;77.93;99773.06;10565451;22;20090;-73
2021/07/24 02:30:58;;;;;;;19.30;18.00;;;;;;;16.94;76.24;99770.00;10546026;28;20044;-73
2021/07/24 02:36:00;;;;;;;20.75;19.00;;;;;;;16.88;76.18;99757.09;10526994;28;20048;-73
2021/07/24 02:41:05;;;;;;;19.08;17.83;;;;;;;16.89;75.50;99758.81;10545744;28;20119;-73
2021/07/24 02:46:07;;;;;;;18.92;17.63;;;;;;;16.62;76.59;99748.91;10545106;28;20489;-73
2021/07/24 02:51:10;;;;;;;19.30;17.90;;;;;;;16.86;75.48;99754.53;10510527;28;20040;-72
2021/07/24 02:56:14;;;;;;;16.75;15.65;;;;;;;16.58;75.89;99751.84;10527496;28;20509;-73
2021/07/24 03:01:16;;;;;;;16.42;15.18;;;;;;;16.56;75.65;99746.66;10543821;28;20038;-73
2021/07/24 03:06:17;;;;;;;17.17;15.95;;;;;;;16.41;76.12;99742.25;10544266;28;20047;-73
2021/07/24 03:11:19;;;;;;;17.95;16.55;;;;;;;16.36;76.45;99747.00;10543698;28;20036;-73
2021/07/24 03:16:21;;;;;;;17.13;16.02;;;;;;;16.37;76.06;99736.28;10541861;28;20089;-73
2021/07/24 03:21:23;;;;;;;18.08;16.67;;;;;;;16.42;75.58;99741.31;10541982;28;20090;-73
2021/07/24 03:26:24;;;;;;;16.67;15.35;;;;;;;16.40;75.93;99735.25;10541761;28;20041;-73
2021/07/24 03:31:26;;;;;;;16.45;15.35;;;;;;;16.43;75.27;99740.38;10523331;28;20040;-73
2021/07/24 03:36:27;;;;;;;16.67;15.45;;;;;;;16.50;74.72;99739.03;10542079;28;20455;-74
2021/07/24 03:41:32;;;;;;;15.35;14.32;;;;;;;16.51;74.40;99745.19;10541132;28;20397;-73
2021/07/24 03:46:34;;;;;;;16.05;15.05;;;;;;;16.51;74.36;99747.84;10524931;28;20039;-73
2021/07/24 03:51:38;;;;;;;16.00;14.65;;;;;;;16.56;73.97;99746.66;10541321;28;20058;-73
2021/07/24 03:56:39;;;;;;;14.52;13.43;;;;;;;16.70;72.80;99750.25;10523616;28;20050;-73
2021/07/24 04:01:43;;;;;;;16.10;14.85;;;;;;;16.72;72.78;99762.50;10523441;28;20436;-73
2021/07/24 04:06:46;;;;;;;14.52;13.35;;;;;;;16.83;71.89;99760.06;10523445;28;20086;-73
2021/07/24 04:11:48;;;;;;;14.77;13.77;;;;;;;16.91;71.39;99762.25;10524163;28;20105;-74
2021/07/24 04:16:51;;;;;;;15.43;14.20;;;;;;;16.97;71.71;99759.19;10543797;28;20089;-72
2021/07/24 04:21:53;;;;;;;14.00;13.10;;;;;;;17.15;69.84;99757.19;10543680;28;20040;-73
2021/07/24 04:26:55;;;;;;;15.25;14.27;;;;;;;17.16;69.86;99761.53;10526642;28;20102;-73
2021/07/24 04:31:56;;;;;;;13.90;12.93;;;;;;;17.33;69.87;99763.13;10533694;28;20044;-73
2021/07/24 04:36:58;;;;;;;13.63;12.60;;;;;;;17.69;67.70;99772.31;10532893;28;20059;-73
2021/07/24 04:42:00;;;;;;;14.23;13.27;;;;;;;18.04;66.15;99778.84;10549690;28;20123;-73
2021/07/24 04:47:01;;;;;;;12.70;11.80;;;;;;;18.17;65.97;99778.03;10551803;28;20040;-72
2021/07/24 04:52:03;;;;;;;13.75;12.65;;;;;;;18.52;64.48;99773.84;10550653;28;20436;-73
2021/07/24 04:57:05;;;;;;;13.23;12.32;;;;;;;18.61;63.54;99775.00;10531377;28;20093;-73
2021/07/24 05:02:07;;;;;;;13.80;12.73;;;;;;;18.50;65.51;99777.53;10549003;28;20040;-73
2021/07/24 05:07:11;;;;;;;13.65;12.75;;;;;;;18.69;66.01;99779.81;10531059;28;20127;-73
2021/07/24 05:12:13;;;;;;;12.45;11.57;;;;;;;18.67;65.45;99786.06;10548830;28;20036;-73
2021/07/24 05:17:15;;;;;;;13.57;12.52;;;;;;;18.94;62.89;99793.13;10548120;28;20052;-73
2021/07/24 05:22:17;;;;;;;13.00;12.10;;;;;;;19.02;63.33;99790.78;10547754;28;20047;-73
2021/07/24 05:27:18;;;;;;;13.02;12.13;;;;;;;19.15;62.80;99790.78;10549189;28;20048;-73
2021/07/24 05:32:20;;;;;;;12.45;11.52;;;;;;;19.21;63.27;99784.16;10547077;28;20048;-73
2021/07/24 05:37:22;;;;;;;12.95;12.05;;;;;;;19.54;61.56;99780.88;10546158;28;20448;-73
2021/07/24 05:42:24;;;;;;;12.77;11.88;;;;;;;19.82;59.83;99772.56;10528884;28;20047;-73
2021/07/24 05:47:26;;;;;;;13.48;12.48;;;;;;;19.83;61.60;99776.06;10547044;28;20086;-73
2021/07/24 05:52:28;;;;;;;12.38;11.48;;;;;;;20.20;59.79;99778.69;10528846;28;20386;-73
2021/07/24 05:57:30;;;;;;;12.75;11.85;;;;;;;20.48;59.57;99775.63;10529884;28;20054;-74
2021/07/24 06:02:31;;;;;;;12.23;11.32;;;;;;;20.75;59.36;99774.44;10511882;28;20040;-73
2021/07/24 06:07:33;;;;;;;11.55;10.65;;;;;;;21.34;56.61;99769.75;10546832;28;20054;-73
2021/07/24 06:12:35;;;;;;;10.95;10.25;;;;;;;21.71;56.15;99780.13;10547571;28;20093;-74
2021/07/24 06:17:36;;;;;;;11.20;10.35;;;;;;;22.02;54.56;99767.72;10545365;28;20032;-74
2021/07/24 06:22:38;;;;;;;10.73;9.82;;;;;;;22.71;53.49;99764.59;10545970;28;20047;-73
2021/07/24 06:27:43;;;;;;;9.98;9.27;;;;;;;23.01;52.84;99758.38;10526766;28;20059;-73
2021/07/24 06:32:44;;;;;;;10.40;9.63;;;;;;;23.32;51.33;99755.69;10544151;28;20040;-73
2021/07/24 06:37:46;;;;;;;10.43;9.63;;;;;;;23.26;51.98;99748.19;10544338;28;20090;-72
2021/07/24 06:42:48;;;;;;;11.35;10.50;;;;;;;23.41;52.13;99749.47;10525659;28;20064;-73
2021/07/24 06:47:49;;;;;;;11.15;10.10;;;;;;;23.92;50.05;99729.69;10544049;28;20040;-75
2021/07/24 06:52:52;;;;;;;11.00;9.75;;;;;;;24.25;50.25;99730.19;10543261;28;20048;-72
2021/07/24 06:57:54;;;;;;;10.60;9.60;;;;;;;24.56;47.92;99731.72;10543567;28;20052;-73
2021/07/24 07:02:59;;;;;;;9.35;8.75;;;;;;;24.75;48.89;99727.31;10524599;28;20040;-72
2021/07/24 07:08:01;;;;;;;;;;;;;;;25.03;48.03;99720.94;10525249;28;20054;-72
2021/07/24 07:13:03;;;;;;;9.95;9.00;;;;;;;25.13;47.94;99721.75;10543275;28;19924;-72
2021/07/24 07:18:05;;;;;;;9.43;8.73;;;;;;;25.55;45.64;99718.56;10543101;28;20048;-73
2021/07/24 07:23:06;;;;;;;9.38;8.65;;;;;;;25.28;47.68;99714.06;10524227;28;20512;-72
2021/07/24 07:28:09;;;;;;;9.23;8.63;;;;;;;25.23;48.07;99715.47;10523699;28;20055;-72
2021/07/24 07:33:10;;;;;;;9.50;8.90;;;;;;;25.09;47.83;99706.06;10542065;28;20048;-73
2021/07/24 07:38:12;;;;;;;8.93;8.32;;;;;;;25.43;46.07;99709.00;10541969;28;20072;-73
2021/07/24 07:43:14;;;;;;;9.38;8.63;;;;;;;25.41;47.18;99709.16;10542362;28;20089;-71
2021/07/24 07:48:15;;;;;;;8.63;8.07;;;;;;;25.43;45.98;99714.38;10524026;28;20052;-72
2021/07/24 07:53:17;;;;;;;9.05;8.15;;;;;;;25.05;48.18;99705.50;10524124;28;20047;-72
2021/07/24 07:58:18;;;;;;;9.02;8.35;;;;;;;25.34;46.45;99701.84;10523181;28;20134;-73
2021/07/24 08:03:24;;;;;;;9.23;8.52;;;;;;;25.74;46.04;99693.31;10541150;28;20044;-73
2021/07/24 08:08:26;;;;;;;9.55;8.80;;;;;;;26.14;45.57;99689.31;10540963;28;20455;-72
2021/07/24 08:13:27;;;;;;;8.25;7.65;;;;;;;26.20;45.45;99698.59;10538827;28;20051;-72
2021/07/24 08:18:29;;;;;;;8.57;7.97;;;;;;;26.48;45.16;99697.50;10532927;28;20040;-71
2021/07/24 08:23:30;;;;;;;9.48;8.88;;;;;;;26.74;46.11;99704.69;10537641;28;20055;-73
2021/07/24 08:28:35;;;;;;;9.55;8.75;;;;;;;26.73;46.32;99697.63;10538298;22;20043;-82
2021/07/24 08:34:49;;;;;;;;;;;;;;;;;;;;;
2021/07/24 08:40:48;;;;;;;9.13;8.43;;;;;;;27.11;43.80;99683.66;10345696;28;20066;-84
2021/07/24 08:46:41;;;;;;;8.38;7.78;;;;;;;27.29;43.63;99690.81;10327821;28;20465;-83
2021/07/24 08:52:03;;;;;;;8.68;7.90;;;;;;;27.82;44.15;99676.06;10092408;29;20541;-84
2021/07/24 08:57:16;;;;;;;8.55;7.78;;;;;;;27.96;42.92;99677.25;10092393;29;20198;-84
2021/07/24 09:03:39;;;;;;;8.85;8.25;;;;;;;28.20;41.60;99670.97;10071379;29;20205;-83
2021/07/24 09:08:52;;;;;;;8.98;8.27;;;;;;;28.88;41.10;99682.16;10144595;29;20080;-84
2021/07/24 09:14:17;;;;;;;7.82;7.32;;;;;;;28.83;42.21;99673.72;10179822;29;20055;-82
2021/07/24 09:19:23;;;;;;;9.63;8.70;;;;;;;29.22;40.24;99670.19;10236786;29;20086;-82
2021/07/24 09:24:28;;;;;;;9.00;8.27;;;;;;;29.76;41.65;99666.66;10231318;29;20176;-82
2021/07/24 09:29:35;;;;;;;8.77;8.02;;;;;;;30.59;40.27;99669.28;10483519;28;20048;-83
2021/07/24 09:34:40;;;;;;;7.55;6.95;;;;;;;30.33;39.18;99664.28;10505951;28;20052;-83
2021/07/24 09:39:42;;;;;;;;;;;;;;;30.43;40.46;99653.16;10525904;28;20051;-82
2021/07/24 09:45:06;;;;;;;8.43;7.70;;;;;;;30.99;37.84;99639.97;10504333;28;19920;-82
2021/07/24 09:50:14;;;;;;;8.50;7.60;;;;;;;31.06;38.58;99643.59;10506280;28;20049;-83
2021/07/24 09:55:24;;;;;;;10.48;7.47;;;;;;;31.04;37.61;99636.69;10520076;28;20091;-81
2021/07/24 10:00:51;;;;;;;7.80;7.20;;;;;;;31.27;37.75;99634.66;10505365;28;20074;-81
2021/07/24 10:05:57;;;;;;;7.85;7.18;;;;;;;31.15;36.87;99630.75;10510309;28;20052;-81
2021/07/24 10:11:08;;;;;;;7.40;6.80;;;;;;;31.29;37.42;99623.63;10525155;28;20033;-81
2021/07/24 10:17:00;;;;;;;7.95;7.35;;;;;;;31.12;38.53;99622.97;10525195;28;20044;-82
2021/07/24 10:22:23;;;;;;;7.15;6.70;;;;;;;31.81;37.52;99620.56;10534106;28;20097;-82
2021/07/24 10:34:30;;;;;;;7.47;6.88;;;;;;;31.83;36.07;99606.81;10463972;28;20037;-81
2021/07/24 10:39:32;;;;;;;6.70;6.30;;;;;;;32.12;33.88;99605.78;10503718;28;20052;-80
2021/07/24 10:44:39;;;;;;;5.97;5.57;;;;;;;31.26;34.88;99596.84;10488517;28;20177;-80
2021/07/24 10:49:43;;;;;;;7.03;6.43;;;;;;;30.87;34.24;99600.78;10490764;28;20086;-81
2021/07/24 10:54:51;;;;;;;6.70;6.13;;;;;;;31.06;34.58;99594.72;10496648;28;20067;-81
2021/07/24 11:00:28;;;;;;;6.00;5.60;;;;;;;31.17;31.72;99590.69;10525001;28;20041;-81
2021/07/24 11:05:32;;;;;;;5.63;5.22;;;;;;;31.72;32.42;99580.16;10523638;28;20048;-83
2021/07/24 11:10:35;;;;;;;5.93;5.53;;;;;;;32.26;33.82;99580.34;10511596;28;20102;-82
2021/07/24 11:15:39;;;;;;;6.30;5.90;;;;;;;32.38;33.25;99584.22;10507420;28;20102;-82
2021/07/24 11:20:48;;;;;;;5.55;5.15;;;;;;;32.24;29.00;99581.63;10486888;28;20138;-80
2021/07/24 11:25:51;;;;;;;5.75;5.25;;;;;;;31.97;32.26;99584.16;10510529;28;20090;-86
2021/07/24 11:38:04;;;;;;;6.93;6.53;;;;;;;30.94;34.35;99592.72;10380965;28;20054;-85
2021/07/24 11:43:21;;;;;;;;;;;;;;;;;;;;;
2021/07/24 11:49:14;;;;;;;;;;;;;;;;;;;;;
2021/07/24 11:54:49;;;;;;;6.80;6.35;;;;;;;30.74;33.40;99598.75;10367460;28;20038;-83
2021/07/24 12:00:11;;;;;;;10.05;6.30;;;;;;;31.14;33.63;99605.47;10385557;28;20056;-82
2021/07/24 12:06:03;;;;;;;8.45;7.90;;;;;;;31.30;32.17;99609.00;10441853;28;20102;-84
2021/07/24 12:11:20;;;;;;;7.22;6.68;;;;;;;31.61;31.59;99612.25;10494305;28;20473;-86
2021/07/24 12:17:43;;;;;;;7.55;7.00;;;;;;;31.19;33.75;99613.06;10475521;28;20055;-85
2021/07/24 12:24:01;;;;;;;7.32;6.93;;;;;;;30.38;34.77;99604.91;10302646;28;20063;-83
2021/07/24 12:29:47;;;;;;;7.65;6.95;;;;;;;29.95;33.73;99617.38;10492505;22;20060;-71
2021/07/24 12:34:49;;;;;;;10.05;7.20;;;;;;;29.89;34.34;99615.41;10490431;28;20037;-71
2021/07/24 12:39:51;;;;;;;7.20;6.57;;;;;;;30.50;35.20;99610.69;10489953;28;20102;-71
2021/07/24 12:44:55;;;;;;;7.93;7.43;;;;;;;30.36;34.01;99619.69;10489958;28;20041;-72
2021/07/24 12:49:56;;;;;;;7.28;6.78;;;;;;;30.71;34.06;99609.09;10495373;28;20048;-71
2021/07/24 12:55:10;;;;;;;6.82;6.22;;;;;;;31.16;34.36;99597.97;10497372;28;20056;-70
2021/07/24 13:00:20;;;;;;;7.38;6.88;;;;;;;31.40;35.83;99590.53;10497840;28;20044;-71
2021/07/24 13:05:23;;;;;;;8.02;6.88;;;;;;;30.46;34.23;99587.72;10479866;28;20048;-72
2021/07/24 13:10:26;;;;;;;8.02;7.40;;;;;;;30.71;34.77;99592.81;10496596;28;20048;-71
2021/07/24 13:15:28;;;;;;;7.88;7.38;;;;;;;31.06;34.34;99583.03;10495022;28;20517;-71
2021/07/24 13:20:34;;;;;;;7.47;6.95;;;;;;;31.33;33.70;99584.19;10495878;28;20464;-71
2021/07/24 13:30:38;;;;;;;8.10;7.57;;;;;;;31.36;33.77;99594.66;10496117;28;20087;-71
2021/07/24 13:35:44;;;;;;;9.00;7.15;;;;;;;31.15;33.04;99592.75;10495740;28;20068;-71
2021/07/24 13:40:45;;;;;;;7.47;7.07;;;;;;;30.68;34.92;99596.78;10495576;28;20068;-71
2021/07/24 13:45:47;;;;;;;7.53;6.97;;;;;;;30.88;34.78;99602.47;10495011;28;20041;-71
2021/07/24 13:50:49;;;;;;;7.85;7.28;;;;;;;30.83;33.56;99596.78;10494692;28;20097;-71
2021/07/24 13:55:54;;;;;;;7.07;6.67;;;;;;;30.48;35.26;99601.91;10494876;28;20106;-71
2021/07/24 14:00:55;;;;;;;8.35;6.60;;;;;;;30.37;34.72;99599.66;10476433;28;20302;-71
2021/07/24 14:06:02;;;;;;;7.72;7.13;;;;;;;30.63;34.03;99591.03;10495975;28;20041;-70
2021/07/24 14:11:17;;;;;;;7.18;6.68;;;;;;;30.72;33.46;99591.81;10496241;28;20386;-71
2021/07/24 14:16:20;;;;;;;6.82;6.43;;;;;;;30.45;34.11;99593.31;10496319;28;20043;-71
2021/07/24 14:21:24;;;;;;;7.75;7.25;;;;;;;30.67;34.94;99589.63;10495064;28;20045;-71
2021/07/24 14:26:25;;;;;;;8.35;6.55;;;;;;;30.73;33.96;99593.53;10515392;22;20119;-72
2021/07/24 14:31:27;;;;;;;7.40;6.80;;;;;;;30.77;35.46;99581.22;10540586;28;20043;-72
2021/07/24 14:36:28;;;;;;;7.00;6.50;;;;;;;30.89;33.76;99583.25;10540236;28;20044;-72
2021/07/24 14:41:30;;;;;;;7.60;7.00;;;;;;;30.83;34.29;99570.47;10540565;28;20532;-71
2021/07/24 14:46:32;;;;;;;7.72;7.07;;;;;;;30.98;32.61;99566.88;10541428;28;20378;-72
2021/07/24 14:51:34;;;;;;;7.38;6.95;;;;;;;31.05;32.44;99565.91;10540090;28;20118;-72
2021/07/24 14:56:36;;;;;;;6.78;6.30;;;;;;;31.07;33.18;99546.72;10564209;28;20085;-72
2021/07/24 15:01:37;;;;;;;7.10;6.50;;;;;;;30.99;32.71;99549.53;10582208;28;20437;-72
2021/07/24 15:06:40;;;;;;;7.72;7.22;;;;;;;30.53;33.75;99542.53;10563466;28;20048;-71
2021/07/24 15:11:43;;;;;;;8.25;7.05;;;;;;;29.97;35.47;99544.00;10579367;28;20071;-72
2021/07/24 15:16:45;;;;;;;6.70;6.25;;;;;;;29.82;33.80;99546.72;10579438;28;20093;-72
2021/07/24 15:21:48;;;;;;;7.60;7.13;;;;;;;30.54;32.47;99535.22;10579754;28;20084;-72
2021/07/24 15:26:50;;;;;;;7.07;6.57;;;;;;;31.05;32.91;99530.63;10579761;28;20039;-72
2021/07/24 15:31:54;;;;;;;7.55;6.97;;;;;;;31.62;32.06;99524.28;10560972;28;20051;-71
2021/07/24 15:36:56;;;;;;;6.95;6.45;;;;;;;31.46;31.70;99519.13;10579128;28;20115;-73
2021/07/24 15:42:09;;;;;;;6.53;6.07;;;;;;;31.47;32.57;99526.22;10578983;28;20047;-73
2021/07/24 15:47:11;;;;;;;7.00;6.45;;;;;;;30.99;32.22;99511.53;10559690;28;20066;-72
2021/07/24 15:52:13;;;;;;;6.95;6.32;;;;;;;30.31;32.28;99513.66;10577861;28;20188;-72
2021/07/24 15:57:15;;;;;;;7.53;6.82;;;;;;;29.87;35.01;99522.59;10559489;28;20474;-72
2021/07/24 16:02:16;;;;;;;7.35;6.85;;;;;;;29.60;33.34;99522.19;10578405;28;20418;-71
2021/07/24 16:07:19;;;;;;;7.63;7.00;;;;;;;29.37;35.09;99521.38;10578660;28;20402;-71
2021/07/24 16:12:21;;;;;;;7.53;6.82;;;;;;;29.36;34.39;99520.53;10559594;28;20115;-72
2021/07/24 16:17:23;;;;;;;7.25;6.55;;;;;;;29.31;34.61;99506.72;10559741;28;20104;-71
2021/07/24 16:22:25;;;;;;;6.70;6.30;;;;;;;29.21;35.80;99508.78;10562548;28;20081;-71
2021/07/24 16:27:27;;;;;;;6.93;6.43;;;;;;;29.08;35.66;99495.88;10586213;28;20066;-72
2021/07/24 16:32:28;;;;;;;8.40;7.88;;;;;;;29.02;37.30;99485.78;10586228;28;20469;-72
2021/07/24 16:37:32;;;;;;;7.50;6.90;;;;;;;28.82;36.63;99473.72;10567406;28;20192;-71
2021/07/24 16:42:34;;;;;;;8.15;7.40;;;;;;;28.73;35.36;99467.53;10567584;28;20062;-72
2021/07/24 16:47:38;;;;;;;7.82;7.32;;;;;;;28.62;35.81;99460.66;10567980;28;20529;-72
2021/07/24 16:52:44;;;;;;;7.40;6.80;;;;;;;28.49;36.34;99455.00;10585886;28;20372;-72
2021/07/24 16:57:45;;;;;;;7.75;7.25;;;;;;;28.48;36.50;99449.78;10585134;28;20089;-72
2021/07/24 17:02:47;;;;;;;8.63;7.93;;;;;;;28.55;36.30;99456.97;10565761;28;20066;-72
2021/07/24 17:07:49;;;;;;;9.40;8.68;;;;;;;28.48;37.36;99452.50;10585058;28;20044;-71
2021/07/24 17:12:51;;;;;;;8.77;7.90;;;;;;;28.47;37.21;99454.34;10549147;28;20497;-72
2021/07/24 17:17:52;;;;;;;9.55;8.80;;;;;;;28.25;37.56;99464.06;10584832;28;20059;-72
2021/07/24 17:22:54;;;;;;;8.00;7.50;;;;;;;28.04;37.68;99464.66;10566155;28;20103;-71
2021/07/24 17:27:55;;;;;;;8.52;7.80;;;;;;;27.69;38.86;99457.81;10565417;28;20421;-70
2021/07/24 17:32:57;;;;;;;8.38;7.78;;;;;;;27.59;39.03;99457.19;10583084;28;20047;-70
2021/07/24 17:37:59;;;;;;;7.43;6.93;;;;;;;27.33;39.39;99457.38;10583735;28;20046;-70
2021/07/24 17:43:01;;;;;;;8.05;7.45;;;;;;;27.06;39.81;99456.69;10565563;28;20082;-70
2021/07/24 17:48:03;;;;;;;8.07;7.53;;;;;;;26.92;40.35;99457.38;10565208;28;20047;-70
2021/07/24 17:53:05;;;;;;;9.48;8.80;;;;;;;26.77;41.72;99456.31;10583600;28;20504;-72
2021/07/24 17:58:07;;;;;;;9.90;9.30;;;;;;;26.61;41.36;99449.06;10583682;28;20081;-72
2021/07/24 18:03:09;;;;;;;10.73;10.02;;;;;;;26.40;41.88;99454.88;10583010;28;20040;-71
2021/07/24 18:08:11;;;;;;;10.30;9.60;;;;;;;26.41;42.25;99448.47;10584460;28;20043;-71
2021/07/24 18:13:13;;;;;;;9.50;8.90;;;;;;;26.09;43.01;99435.75;10564042;28;20060;-71
2021/07/24 18:18:14;;;;;;;10.18;9.48;;;;;;;25.85;42.84;99442.75;10582370;28;20562;-70
2021/07/24 18:23:16;;;;;;;11.55;10.35;;;;;;;25.66;44.43;99451.84;10563170;28;20055;-72
2021/07/24 18:28:22;;;;;;;11.27;10.23;;;;;;;25.39;45.17;99441.25;10582440;28;20058;-72
2021/07/24 18:33:24;;;;;;;10.27;9.68;;;;;;;25.20;45.37;99449.53;10564195;28;20047;-72
2021/07/24 18:38:26;;;;;;;9.10;8.60;;;;;;;25.08;45.25;99449.75;10582359;28;20051;-71
2021/07/24 18:43:28;;;;;;;10.00;9.30;;;;;;;25.04;45.81;99442.13;10581906;28;20195;-71
2021/07/24 18:48:30;;;;;;;9.00;8.35;;;;;;;25.05;46.09;99441.13;10581797;28;20468;-70
2021/07/24 18:53:34;;;;;;;10.10;9.40;;;;;;;24.88;48.01;99456.25;10582573;28;20111;-71
2021/07/24 18:58:36;;;;;;;10.00;9.27;;;;;;;24.61;51.00;99468.81;10583179;28;20517;-71
2021/07/24 19:03:38;;;;;;;9.45;8.85;;;;;;;24.63;48.92;99472.16;10562786;28;20442;-71
2021/07/24 19:08:40;;;;;;;9.20;8.60;;;;;;;24.41;50.51;99467.22;10562476;28;20112;-70
2021/07/24 19:13:42;;;;;;;9.32;8.55;;;;;;;24.25;52.09;99477.75;10581001;28;20103;-72
2021/07/24 19:18:44;;;;;;;9.30;8.60;;;;;;;24.13;54.44;99482.50;10579570;28;20058;-73
2021/07/24 19:23:45;;;;;;;9.65;8.95;;;;;;;24.06;51.70;99481.38;10562948;28;20038;-72
2021/07/24 19:28:47;;;;;;;9.55;8.75;;;;;;;24.12;51.72;99467.34;10579447;28;20150;-72
2021/07/24 19:33:50;;;;;;;9.68;8.98;;;;;;;24.03;53.60;99458.34;10562663;28;20046;-72
2021/07/24 19:38:52;;;;;;;9.70;8.98;;;;;;;24.01;53.22;99454.97;10579066;28;20044;-72
2021/07/24 19:43:54;;;;;;;10.93;10.15;;;;;;;24.26;50.39;99447.19;10560550;28;20051;-72
2021/07/24 19:48:55;;;;;;;11.32;10.63;;;;;;;24.36;51.08;99448.84;10559136;28;20139;-73
2021/07/24 19:53:58;;;;;;;10.25;9.55;;;;;;;24.20;50.92;99453.19;10578212;28;20103;-72
2021/07/24 19:58:59;;;;;;;9.68;9.00;;;;;;;24.05;52.32;99437.59;10578104;28;20052;-72
2021/07/24 20:04:02;;;;;;;10.07;9.27;;;;;;;24.06;52.74;99443.78;10559251;28;20139;-71
2021/07/24 20:09:04;;;;;;;9.95;9.35;;;;;;;23.65;55.24;99435.22;10578005;28;20468;-72
2021/07/24 20:14:06;;;;;;;10.25;9.60;;;;;;;23.54;54.38;99433.50;10577613;28;20095;-72
2021/07/24 20:19:07;;;;;;;9.82;9.13;;;;;;;23.79;53.38;99433.88;10577986;28;20443;-72
2021/07/24 20:24:09;;;;;;;10.85;10.10;;;;;;;23.68;53.62;99437.59;10578543;28;20077;-72
2021/07/24 20:29:11;;;;;;;11.45;10.57;;;;;;;23.56;54.61;99436.91;10546747;22;20119;-76
2021/07/24 20:34:13;;;;;;;11.07;10.32;;;;;;;23.47;55.03;99435.09;10534376;28;20128;-74
2021/07/24 20:39:14;;;;;;;11.15;10.35;;;;;;;23.28;54.81;99435.13;10533484;28;20392;-75
2021/07/24 20:44:16;;;;;;;11.38;10.45;;;;;;;23.20;55.16;99441.25;10533500;28;20166;-74
2021/07/24 20:49:17;;;;;;;10.65;9.85;;;;;;;23.12;54.64;99444.63;10533203;28;20048;-74
2021/07/24 20:54:19;;;;;;;10.73;9.93;;;;;;;23.24;52.32;99442.66;10516074;28;20079;-75
2021/07/24 20:59:21;;;;;;;10.05;9.23;;;;;;;23.43;51.67;99449.78;10532941;28;20514;-73
2021/07/24 21:04:28;;;;;;;10.82;10.10;;;;;;;23.47;50.99;99466.44;10532881;28;20111;-75
2021/07/24 21:09:30;;;;;;;10.68;9.98;;;;;;;23.45;50.46;99469.25;10535600;28;20044;-75
2021/07/24 21:14:34;;;;;;;10.43;9.63;;;;;;;23.34;50.38;99482.84;10541236;28;20048;-75
2021/07/24 21:19:38;;;;;;;9.73;9.02;;;;;;;23.55;49.29;99496.94;10540443;28;20059;-75
2021/07/24 21:24:39;;;;;;;8.50;7.90;;;;;;;23.45;50.25;99503.28;10540486;28;20040;-75
2021/07/24 21:29:41;;;;;;;9.80;9.07;;;;;;;23.27;50.96;99505.84;10540035;28;20048;-74
2021/07/24 21:34:42;;;;;;;10.15;9.35;;;;;;;23.22;51.32;99506.28;10539463;28;20044;-74
2021/07/24 21:40:04;;;;;;;10.05;9.35;;;;;;;23.31;50.86;99507.25;10541477;28;20118;-76
2021/07/24 21:45:06;;;;;;;10.63;9.82;;;;;;;23.28;52.31;99518.25;10538131;28;20044;-74
2021/07/24 21:50:08;;;;;;;9.68;9.00;;;;;;;23.22;52.37;99517.00;10539291;28;20048;-75
2021/07/24 21:55:11;;;;;;;9.27;8.68;;;;;;;23.04;53.71;99519.56;10538370;28;20096;-76
2021/07/24 22:00:22;;;;;;;11.27;10.48;;;;;;;23.28;53.57;99513.75;10541796;28;20067;-75
2021/07/24 22:05:23;;;;;;;10.20;9.57;;;;;;;23.01;54.28;99513.63;10521213;28;20040;-75
2021/07/24 22:10:25;;;;;;;10.75;10.05;;;;;;;23.22;54.77;99508.13;10539172;28;20052;-75
2021/07/24 22:15:28;;;;;;;10.73;9.95;;;;;;;23.11;53.77;99506.44;10538640;28;20080;-74
2021/07/24 22:20:32;;;;;;;10.73;9.82;;;;;;;23.06;54.03;99509.50;10540010;28;20036;-74
2021/07/24 22:25:36;;;;;;;10.50;9.30;;;;;;;22.91;54.44;99509.09;10537952;28;20044;-74
2021/07/24 22:30:39;;;;;;;10.45;9.70;;;;;;;22.78;54.78;99507.66;10537519;28;20067;-75
2021/07/24 22:35:41;;;;;;;10.45;9.65;;;;;;;22.58;55.82;99502.28;10536856;28;20070;-75
2021/07/24 22:40:42;;;;;;;9.38;8.88;;;;;;;22.40;56.45;99488.72;10538070;28;20493;-76
2021/07/24 22:45:45;;;;;;;10.27;9.57;;;;;;;22.36;55.43;99478.41;10539775;28;20484;-75
2021/07/24 22:50:47;;;;;;;10.75;10.05;;;;;;;22.67;54.51;99477.34;10535995;28;20040;-74
2021/07/24 22:55:49;;;;;;;10.57;9.77;;;;;;;22.76;55.77;99480.16;10518141;28;20494;-76
2021/07/24 23:00:50;;;;;;;10.05;9.35;;;;;;;22.73;55.65;99472.41;10536874;28;20135;-75
2021/07/24 23:05:53;;;;;;;10.13;9.43;;;;;;;22.54;56.43;99471.41;10537879;28;20084;-75
2021/07/24 23:10:57;;;;;;;10.52;9.82;;;;;;;22.57;56.67;99462.22;10536240;28;20138;-75
2021/07/24 23:15:59;;;;;;;10.75;9.95;;;;;;;22.59;55.86;99455.75;10536813;28;20041;-75
2021/07/24 23:21:01;;;;;;;10.70;10.00;;;;;;;22.31;56.81;99443.13;10518786;28;20052;-75
2021/07/24 23:26:02;;;;;;;10.77;9.98;;;;;;;22.33;56.91;99438.50;10537898;28;20044;-75
2021/07/24 23:31:04;;;;;;;12.60;10.77;;;;;;;22.32;56.48;99421.59;10535298;28;20056;-74
2021/07/24 23:36:05;;;;;;;10.30;9.70;;;;;;;22.35;56.37;99409.75;10535708;28;20405;-74
2021/07/24 23:41:07;;;;;;;11.73;10.93;;;;;;;22.06;57.52;99399.81;10534726;28;20400;-74
2021/07/24 23:46:18;;;;;;;11.00;10.20;;;;;;;21.88;58.22;99390.75;10534293;28;20106;-75
2021/07/24 23:51:19;;;;;;;10.55;9.85;;;;;;;21.80;58.63;99387.91;10535399;28;20138;-75
2021/07/24 23:56:21;;;;;;;10.23;9.52;;;;;;;21.68;58.88;99379.13;10534515;28;20080;-76
